Airfield :
LOGIN :

Register | Disclaimer

   EN    FR    IT 

 










Legend :    VFR   Marginal VFR   IFR   Intensive IFR   Very Intensive IFR
Visi :
Ceiling :
>= 8 km
>= 3000ft
5 to 8 km
1000 to 3000 ft
1500m to 5 km
500 to 1000 ft
800 to 1500m
200 to 500 ft
< 800m
< 200 ft
Symbols :   Thunderstorms  Fog  Heavy snow  Heavy precipitations  Wind > 20 kt
SIGMETs :     Misc.  Thunderstorms  Icing  Turbulence  Mountain Waves  Volcanic Ashes







- Airport Elevation : 291 ft
- IATA code : ORY
- Download approach charts


LFPO - Paris-Orly

CURRENT METAR :
  • 252100Z 05010KT CAVOK 12/00 Q1018 NOSIG

EXPIRED METARs :
  • 252030Z 05009KT CAVOK 13/00 Q1018 NOSIG
  • 252000Z 06010KT CAVOK 13/00 Q1018 NOSIG
  • 251930Z 06011KT CAVOK 14/00 Q1018 NOSIG
  • 251900Z 05012KT CAVOK 14/00 Q1017 NOSIG

TAF TAF LFPO
Valid from the 25 at 18:00 until the 27 at 00:00 UTC


251700Z 2518/2624 07010KT CAVOK
ATIS : +33 1 49 75 65 80
No reported NOTAMs for that airfield.



MET'MAP, your aeronautical weather chart ! - Copyright ORBIFLY December 2007 - Disclaimer

ORBIFLY MET'MAP TEAM :

Programming & Development : Alexandra Zaïnal
Concept & Development : Baudouin d'Aumeries
Co-Development & Prog : Marc-Olivier Méhu
Technical & hardware support : Manuel Goepfert

Contact : metmap@orbifly.com




SOURCES & CREDITS :

   NOAA